Time;durP1;ratioP1;P1;durP2;ratioP2;P2;SDS_P1;SDS_P2;PMS_P1;PMS_P2;Temp;Humidity;BMP_temperature;BMP_pressure;BME280_temperature;BME280_humidity;BME280_pressure;Samples;Min_cycle;Max_cycle;Signal;HPM_P1;HPM_P2
2024/01/01 00:01:23;;;;;;;10.32;7.35;;;7.60;99.90;;;;;;4953556;28;95350;-31
2024/01/01 00:03:49;;;;;;;12.32;7.93;;;7.60;99.90;;;;;;4940667;28;95451;-30
2024/01/01 00:06:14;;;;;;;10.40;7.75;;;7.70;99.90;;;;;;4955894;28;93153;-31
2024/01/01 00:08:40;;;;;;;11.05;9.07;;;7.70;99.90;;;;;;4960216;28;93245;-30
2024/01/01 00:11:06;;;;;;;10.40;8.45;;;7.70;99.90;;;;;;4955293;28;94788;-32
2024/01/01 00:13:31;;;;;;;14.60;10.05;;;7.80;99.90;;;;;;4958289;28;94037;-34
2024/01/01 00:15:57;;;;;;;15.57;9.10;;;7.80;99.90;;;;;;4961455;28;92300;-30
2024/01/01 00:18:22;;;;;;;20.83;13.82;;;7.80;99.90;;;;;;4961032;28;93544;-30
2024/01/01 00:20:48;;;;;;;30.05;12.73;;;7.90;99.90;;;;;;4958579;28;95805;-33
2024/01/01 00:23:13;;;;;;;19.58;13.55;;;7.90;99.90;;;;;;4959334;28;95650;-30
2024/01/01 00:25:39;;;;;;;23.75;14.35;;;7.90;99.90;;;;;;4959389;28;93763;-30
2024/01/01 00:28:08;;;;;;;28.67;18.50;;;7.90;99.90;;;;;;4963399;28;93499;-29
2024/01/01 00:30:35;;;;;;;28.23;18.70;;;7.90;99.90;;;;;;4964744;28;94812;-34
2024/01/01 00:33:01;;;;;;;34.88;23.20;;;7.90;99.90;;;;;;4958483;28;94468;-32
2024/01/01 00:35:27;;;;;;;33.65;23.73;;;7.90;99.90;;;;;;4952301;28;94574;-30
2024/01/01 00:37:52;;;;;;;33.13;22.67;;;7.90;99.90;;;;;;4953783;28;93179;-32
2024/01/01 00:40:18;;;;;;;41.25;23.33;;;8.00;99.90;;;;;;4957971;28;95117;-29
2024/01/01 00:42:47;;;;;;;34.90;23.05;;;8.00;99.90;;;;;;4957796;28;95384;-32
2024/01/01 00:45:13;;;;;;;41.35;24.02;;;8.00;99.90;;;;;;4957959;28;93111;-33
2024/01/01 00:47:38;;;;;;;30.98;22.33;;;8.00;99.90;;;;;;4953823;28;94489;-29
2024/01/01 00:50:04;;;;;;;34.92;21.95;;;8.00;99.90;;;;;;4951673;28;94554;-30
2024/01/01 00:52:30;;;;;;;32.13;20.48;;;8.00;99.90;;;;;;4958504;28;95299;-32
2024/01/01 00:54:56;;;;;;;31.48;19.63;;;8.00;99.90;;;;;;4957770;28;93173;-29
2024/01/01 00:57:21;;;;;;;26.73;15.45;;;8.00;99.90;;;;;;4958337;28;94910;-30
2024/01/01 00:59:47;;;;;;;25.42;17.63;;;8.00;99.90;;;;;;4958378;28;94726;-29
2024/01/01 01:02:13;;;;;;;22.92;15.18;;;8.00;99.90;;;;;;4957824;28;94921;-29
2024/01/01 01:04:42;;;;;;;22.88;16.60;;;8.00;99.90;;;;;;4955529;28;93290;-28
2024/01/01 01:07:07;;;;;;;21.65;16.35;;;8.00;99.90;;;;;;4957535;28;93544;-31
2024/01/01 01:09:33;;;;;;;25.17;16.17;;;8.00;99.90;;;;;;4950195;28;96997;-31
2024/01/01 01:11:59;;;;;;;24.98;14.68;;;8.00;99.90;;;;;;4952754;28;94453;-30
2024/01/01 01:14:24;;;;;;;25.55;16.27;;;8.00;99.90;;;;;;4970259;28;93674;-34
2024/01/01 01:16:50;;;;;;;24.33;17.83;;;8.10;99.90;;;;;;4970537;28;92214;-32
2024/01/01 01:19:15;;;;;;;23.25;17.80;;;8.00;99.90;;;;;;4970578;28;96256;-30
2024/01/01 01:21:41;;;;;;;26.80;16.45;;;8.00;99.90;;;;;;4975835;28;95159;-30
2024/01/01 01:24:07;;;;;;;31.25;17.65;;;8.10;99.90;;;;;;4976055;28;93234;-32
2024/01/01 01:26:32;;;;;;;26.75;16.88;;;8.00;99.90;;;;;;4957593;28;92133;-32
2024/01/01 01:28:58;;;;;;;21.50;15.95;;;8.00;99.90;;;;;;4969975;28;94263;-33
2024/01/01 01:31:23;;;;;;;25.27;18.75;;;8.00;99.90;;;;;;4962180;28;94785;-34
2024/01/01 01:33:52;;;;;;;22.73;17.38;;;8.00;99.90;;;;;;4975992;28;94794;-30
2024/01/01 01:36:18;;;;;;;29.85;16.25;;;8.00;99.90;;;;;;4970885;28;93198;-31
2024/01/01 01:38:43;;;;;;;35.67;18.90;;;8.10;99.90;;;;;;4957692;28;95509;-30
2024/01/01 01:41:09;;;;;;;28.05;17.23;;;8.00;99.90;;;;;;4956657;28;94070;-30
2024/01/01 01:43:34;;;;;;;19.85;15.23;;;8.00;99.90;;;;;;4951840;28;93494;-31
2024/01/01 01:46:01;;;;;;;35.60;17.15;;;8.10;99.90;;;;;;4950477;28;92295;-30
2024/01/01 01:48:27;;;;;;;22.45;16.10;;;8.00;99.90;;;;;;4968938;28;94979;-31
2024/01/01 01:50:55;;;;;;;26.08;15.07;;;8.00;99.90;;;;;;4957383;28;94185;-35
2024/01/01 01:53:24;;;;;;;25.55;14.85;;;8.00;99.90;;;;;;4957499;28;93181;-30
2024/01/01 01:55:51;;;;;;;29.23;16.38;;;8.00;99.90;;;;;;4956749;28;93209;-31
2024/01/01 01:58:17;;;;;;;23.42;14.13;;;8.00;99.90;;;;;;4956302;28;95600;-33
2024/01/01 02:00:45;;;;;;;27.00;14.57;;;8.00;99.90;;;;;;4962855;28;95179;-31
2024/01/01 02:03:11;;;;;;;29.65;15.73;;;8.00;99.90;;;;;;4957176;28;94497;-32
2024/01/01 02:05:37;;;;;;;24.83;14.88;;;8.10;99.90;;;;;;4943788;28;93394;-34
2024/01/01 02:08:03;;;;;;;18.70;12.82;;;8.10;99.90;;;;;;4956318;28;95151;-32
2024/01/01 02:10:29;;;;;;;20.13;14.35;;;8.00;99.90;;;;;;4956935;28;94284;-33
2024/01/01 02:12:55;;;;;;;24.90;15.23;;;8.10;99.90;;;;;;4957195;28;94630;-33
2024/01/01 02:15:20;;;;;;;24.60;14.90;;;8.10;99.90;;;;;;4956774;28;92266;-31
2024/01/01 02:17:47;;;;;;;24.70;14.52;;;8.10;99.90;;;;;;4955817;28;94731;-31
2024/01/01 02:20:13;;;;;;;19.80;12.07;;;8.10;99.90;;;;;;4957944;28;95088;-33
2024/01/01 02:22:39;;;;;;;16.27;12.23;;;8.10;99.90;;;;;;4974467;28;93087;-33
2024/01/01 02:25:06;;;;;;;19.48;12.57;;;8.10;99.90;;;;;;4975653;28;93888;-33
2024/01/01 02:27:33;;;;;;;20.33;13.32;;;8.10;99.90;;;;;;4975692;28;96222;-31
2024/01/01 02:29:59;;;;;;;20.58;13.18;;;8.00;99.90;;;;;;4968928;28;93192;-31
2024/01/01 02:32:24;;;;;;;18.27;11.07;;;8.00;99.90;;;;;;4956220;28;93400;-34
2024/01/01 02:34:50;;;;;;;20.65;11.45;;;8.00;99.90;;;;;;4956731;28;94090;-31
2024/01/01 02:37:15;;;;;;;18.55;11.90;;;8.00;99.90;;;;;;4956743;28;94635;-33
2024/01/01 02:39:41;;;;;;;15.60;10.20;;;8.00;99.90;;;;;;4957477;28;94819;-33
2024/01/01 02:42:07;;;;;;;22.13;11.43;;;8.00;99.90;;;;;;4957624;28;95003;-30
2024/01/01 02:44:32;;;;;;;20.38;10.98;;;8.00;99.90;;;;;;4956807;28;93726;-32
2024/01/01 02:46:58;;;;;;;13.10;9.15;;;8.00;99.90;;;;;;4955298;28;95251;-32
2024/01/01 02:49:23;;;;;;;10.25;7.22;;;8.00;99.90;;;;;;4957501;28;97923;-33
2024/01/01 02:51:49;;;;;;;12.48;7.60;;;8.00;99.90;;;;;;4950937;28;94616;-33
2024/01/01 02:54:15;;;;;;;11.75;6.88;;;7.90;99.90;;;;;;4951497;28;94510;-34
2024/01/01 02:56:41;;;;;;;8.70;6.95;;;7.90;99.90;;;;;;4957250;28;95044;-32
2024/01/01 02:59:08;;;;;;;13.05;8.40;;;7.90;99.90;;;;;;4956651;28;94386;-32
2024/01/01 03:01:34;;;;;;;9.43;5.60;;;7.90;99.90;;;;;;4957659;28;92411;-32
2024/01/01 03:03:59;;;;;;;8.15;5.53;;;7.90;99.90;;;;;;4958000;28;92035;-31
2024/01/01 03:06:25;;;;;;;7.32;4.63;;;7.90;99.90;;;;;;4957208;28;94343;-33
2024/01/01 03:08:50;;;;;;;8.45;4.15;;;7.90;99.90;;;;;;4957747;28;94668;-29
2024/01/01 03:11:16;;;;;;;6.82;4.10;;;7.80;99.90;;;;;;4958122;28;93612;-32
2024/01/01 03:13:42;;;;;;;8.23;3.45;;;7.70;99.90;;;;;;4957384;28;92723;-33
2024/01/01 03:16:08;;;;;;;6.47;3.58;;;7.70;99.90;;;;;;4957972;28;94470;-33
2024/01/01 03:18:34;;;;;;;6.07;3.53;;;7.60;99.90;;;;;;4957563;28;94499;-31
2024/01/01 03:21:00;;;;;;;7.75;4.70;;;7.60;99.90;;;;;;4958381;28;92336;-31
2024/01/01 03:23:26;;;;;;;6.57;3.85;;;7.60;99.90;;;;;;4957524;28;94617;-32
2024/01/01 03:25:51;;;;;;;7.53;4.07;;;7.60;99.90;;;;;;4951736;28;92812;-33
2024/01/01 03:28:17;;;;;;;6.55;4.68;;;7.60;99.90;;;;;;4958780;28;94072;-32
2024/01/01 03:30:43;;;;;;;3.80;2.95;;;7.60;99.90;;;;;;4976270;28;94731;-33
2024/01/01 03:33:09;;;;;;;3.60;2.78;;;7.70;99.90;;;;;;4975833;28;92654;-31
2024/01/01 03:35:35;;;;;;;5.32;2.75;;;7.70;99.90;;;;;;4974608;28;96409;-32
2024/01/01 03:38:01;;;;;;;7.07;4.15;;;7.60;99.90;;;;;;4975861;28;96582;-31
2024/01/01 03:40:27;;;;;;;4.32;2.42;;;7.60;99.90;;;;;;4975234;28;94660;-31
2024/01/01 03:42:53;;;;;;;5.05;1.90;;;7.50;99.90;;;;;;4955638;28;93681;-30
2024/01/01 03:45:19;;;;;;;2.30;2.13;;;7.40;99.90;;;;;;4956069;28;94494;-30
2024/01/01 03:47:45;;;;;;;3.22;2.50;;;7.40;99.90;;;;;;4964888;28;94153;-31
2024/01/01 03:50:10;;;;;;;3.72;2.13;;;7.30;99.90;;;;;;4978963;28;94647;-33
2024/01/01 03:52:36;;;;;;;5.07;2.33;;;7.30;99.90;;;;;;4972700;28;93285;-32
2024/01/01 03:55:03;;;;;;;6.53;2.70;;;7.20;99.90;;;;;;4958843;28;95037;-33
2024/01/01 03:57:31;;;;;;;4.63;2.50;;;7.20;99.90;;;;;;4979426;28;94639;-31
2024/01/01 03:59:57;;;;;;;4.70;1.93;;;7.20;99.90;;;;;;4958883;28;95502;-31
2024/01/01 04:02:22;;;;;;;7.80;3.20;;;7.20;99.90;;;;;;4954811;28;94086;-29
2024/01/01 04:04:50;;;;;;;4.38;3.00;;;7.10;99.90;;;;;;4973365;28;93300;-32
2024/01/01 04:07:16;;;;;;;5.72;2.42;;;7.10;99.90;;;;;;4978397;28;95849;-33
2024/01/01 04:09:42;;;;;;;5.05;2.83;;;7.10;99.90;;;;;;4979176;28;94768;-31
2024/01/01 04:12:07;;;;;;;6.18;2.03;;;7.10;99.90;;;;;;4978948;28;93545;-32
2024/01/01 04:14:33;;;;;;;8.23;3.05;;;7.10;99.90;;;;;;4951018;28;95338;-31
2024/01/01 04:16:59;;;;;;;8.38;3.08;;;7.10;99.90;;;;;;4966770;28;93874;-32
2024/01/01 04:19:24;;;;;;;3.45;2.50;;;7.10;99.90;;;;;;4977925;28;94468;-29
2024/01/01 04:21:50;;;;;;;4.85;2.65;;;7.10;99.90;;;;;;4958947;28;93219;-30
2024/01/01 04:24:16;;;;;;;4.05;3.03;;;7.10;99.90;;;;;;4958616;28;95741;-32
2024/01/01 04:26:41;;;;;;;3.70;2.00;;;7.10;99.90;;;;;;4958775;28;95974;-33
2024/01/01 04:29:07;;;;;;;7.53;3.35;;;7.10;99.90;;;;;;4972608;28;93661;-33
2024/01/01 04:31:32;;;;;;;6.13;2.30;;;7.10;99.90;;;;;;4978483;28;94153;-29
2024/01/01 04:33:58;;;;;;;7.55;2.92;;;7.10;99.90;;;;;;4961946;28;94543;-32
2024/01/01 04:36:24;;;;;;;5.32;2.58;;;7.10;99.90;;;;;;4973199;28;95773;-31
2024/01/01 04:38:50;;;;;;;4.35;2.47;;;7.10;99.90;;;;;;4977473;28;92493;-31
2024/01/01 04:41:16;;;;;;;5.35;3.35;;;7.10;99.90;;;;;;4959042;28;92575;-31
2024/01/01 04:43:41;;;;;;;3.63;3.25;;;7.10;99.90;;;;;;4971884;28;94405;-30
2024/01/01 04:46:10;;;;;;;11.20;2.78;;;7.10;99.90;;;;;;4977394;28;94615;-31
2024/01/01 04:48:35;;;;;;;3.45;1.80;;;7.10;99.90;;;;;;4977246;28;95619;-33
2024/01/01 04:51:01;;;;;;;3.33;2.58;;;7.10;99.90;;;;;;4977801;28;92888;-32
2024/01/01 04:53:27;;;;;;;3.83;2.67;;;7.00;99.90;;;;;;4977074;28;93398;-31
2024/01/01 04:55:52;;;;;;;2.63;2.17;;;7.00;99.90;;;;;;4977926;28;94551;-30
2024/01/01 04:58:19;;;;;;;15.02;2.95;;;7.00;99.90;;;;;;4975945;28;93011;-32
2024/01/01 05:00:44;;;;;;;8.13;2.97;;;7.00;99.90;;;;;;4977969;28;94909;-30
2024/01/01 05:03:10;;;;;;;7.00;3.13;;;6.90;99.90;;;;;;4975982;28;94388;-32
2024/01/01 05:05:36;;;;;;;3.38;2.90;;;6.90;99.90;;;;;;4978268;28;94277;-31
2024/01/01 05:08:01;;;;;;;6.28;3.00;;;6.90;99.90;;;;;;4962360;28;93330;-30
2024/01/01 05:10:27;;;;;;;4.97;2.70;;;6.90;99.90;;;;;;4973885;28;94128;-33
2024/01/01 05:12:53;;;;;;;4.05;2.28;;;6.90;99.90;;;;;;4977782;28;95722;-31
2024/01/01 05:15:19;;;;;;;6.53;2.60;;;6.80;99.90;;;;;;4977593;28;95599;-33
2024/01/01 05:17:45;;;;;;;4.97;2.70;;;6.80;99.90;;;;;;4976900;28;93093;-31
2024/01/01 05:20:11;;;;;;;2.80;2.13;;;6.80;99.90;;;;;;4976989;28;93822;-31
2024/01/01 05:22:36;;;;;;;6.00;3.20;;;6.80;99.90;;;;;;4975629;28;95871;-32
2024/01/01 05:25:03;;;;;;;3.78;2.65;;;6.80;99.90;;;;;;4977826;28;94792;-32
2024/01/01 05:27:28;;;;;;;7.32;2.47;;;6.80;99.90;;;;;;4976019;28;92853;-33
2024/01/01 05:29:54;;;;;;;3.53;2.25;;;6.80;99.90;;;;;;4971451;28;92527;-33
2024/01/01 05:32:20;;;;;;;4.85;3.55;;;6.80;99.90;;;;;;4958668;28;94653;-29
2024/01/01 05:34:46;;;;;;;5.40;3.47;;;6.80;99.90;;;;;;4957940;28;94451;-33
2024/01/01 05:37:12;;;;;;;4.40;3.20;;;6.80;99.90;;;;;;4958301;28;93070;-32
2024/01/01 05:39:38;;;;;;;4.28;3.03;;;6.90;99.90;;;;;;4957999;28;94979;-31
2024/01/01 05:42:04;;;;;;;6.15;2.75;;;6.80;99.90;;;;;;4951167;28;94908;-30
2024/01/01 05:44:29;;;;;;;4.90;2.20;;;6.80;99.90;;;;;;4952089;28;94663;-31
2024/01/01 05:46:55;;;;;;;5.55;2.78;;;6.90;99.90;;;;;;4957386;28;94490;-32
2024/01/01 05:49:23;;;;;;;2.00;1.75;;;6.90;99.90;;;;;;4957927;28;92211;-33
2024/01/01 05:51:49;;;;;;;11.48;4.07;;;6.90;99.90;;;;;;4957624;28;95507;-30
2024/01/01 05:54:15;;;;;;;4.88;2.33;;;6.90;99.90;;;;;;4964059;28;94566;-32
2024/01/01 05:56:41;;;;;;;11.70;2.97;;;6.90;99.90;;;;;;4964194;28;93416;-32
2024/01/01 05:59:06;;;;;;;11.98;4.15;;;6.90;99.90;;;;;;4976645;28;92572;-30
2024/01/01 06:01:32;;;;;;;4.50;2.22;;;6.90;99.90;;;;;;4963293;28;96582;-30
2024/01/01 06:03:58;;;;;;;5.50;3.92;;;7.00;99.90;;;;;;4957514;28;95323;-32
2024/01/01 06:06:25;;;;;;;6.20;3.28;;;6.90;99.90;;;;;;4958530;28;92355;-34
2024/01/01 06:08:50;;;;;;;4.47;2.53;;;6.90;99.90;;;;;;4958152;28;94799;-30
2024/01/01 06:11:16;;;;;;;9.18;2.33;;;6.90;99.90;;;;;;4957691;28;94976;-31
2024/01/01 06:13:42;;;;;;;5.93;2.63;;;6.90;99.90;;;;;;4957819;28;94355;-33
2024/01/01 06:16:08;;;;;;;8.40;3.88;;;6.90;99.90;;;;;;4952260;28;93476;-34
2024/01/01 06:18:34;;;;;;;4.40;2.65;;;6.90;99.90;;;;;;4950511;28;92809;-32
2024/01/01 06:20:59;;;;;;;10.88;3.13;;;6.90;99.90;;;;;;4958011;28;94893;-31
2024/01/01 06:23:25;;;;;;;4.80;3.38;;;6.90;99.90;;;;;;4944862;28;95120;-31
2024/01/01 06:25:52;;;;;;;5.90;2.92;;;6.90;99.90;;;;;;4957920;28;93124;-32
2024/01/01 06:28:18;;;;;;;8.02;3.63;;;6.90;99.90;;;;;;4963759;28;92596;-30
2024/01/01 06:30:44;;;;;;;7.57;3.13;;;7.00;99.90;;;;;;4962681;28;94464;-30
2024/01/01 06:33:09;;;;;;;9.40;3.00;;;7.00;99.90;;;;;;4963480;28;94188;-34
2024/01/01 06:35:35;;;;;;;5.82;3.97;;;6.90;99.90;;;;;;4976269;28;93348;-31
2024/01/01 06:38:01;;;;;;;10.38;4.72;;;6.90;99.90;;;;;;4976165;28;94066;-33
2024/01/01 06:40:27;;;;;;;13.40;4.53;;;6.90;99.90;;;;;;4976160;28;94061;-33
2024/01/01 06:42:53;;;;;;;5.68;2.47;;;6.90;99.90;;;;;;4975864;28;94977;-32
2024/01/01 06:45:18;;;;;;;5.82;3.60;;;6.90;99.90;;;;;;4976474;28;92178;-32
2024/01/01 06:47:44;;;;;;;4.88;2.90;;;6.90;99.90;;;;;;4975606;28;94215;-30
2024/01/01 06:50:10;;;;;;;2.40;2.20;;;6.90;99.90;;;;;;4959565;28;95854;-33
2024/01/01 06:52:35;;;;;;;8.43;3.10;;;6.90;99.90;;;;;;4969808;28;95478;-31
2024/01/01 06:55:01;;;;;;;8.40;2.90;;;6.90;99.90;;;;;;4975637;28;94136;-34
2024/01/01 06:57:27;;;;;;;4.60;2.85;;;6.90;99.90;;;;;;4975804;28;92879;-29
2024/01/01 06:59:52;;;;;;;5.18;3.10;;;6.90;99.90;;;;;;4975914;28;93456;-29
2024/01/01 07:02:18;;;;;;;3.22;3.03;;;7.00;99.90;;;;;;4976215;28;96191;-31
2024/01/01 07:04:44;;;;;;;7.30;4.10;;;7.00;99.90;;;;;;4976922;28;93093;-33
2024/01/01 07:07:10;;;;;;;10.98;3.65;;;7.00;99.90;;;;;;4976005;28;93767;-33
2024/01/01 07:09:36;;;;;;;8.70;2.80;;;7.00;99.90;;;;;;4976394;28;94250;-30
2024/01/01 07:12:18;;;;;;;4.38;2.22;;;6.90;99.90;;;;;;4975108;28;96377;-30
2024/01/01 07:14:44;;;;;;;4.15;2.70;;;6.90;99.90;;;;;;4973344;28;94294;-30
2024/01/01 07:17:09;;;;;;;5.85;2.33;;;6.90;99.90;;;;;;4956220;28;93652;-30
2024/01/01 07:19:35;;;;;;;5.15;2.88;;;6.90;99.90;;;;;;4971323;28;94052;-32
2024/01/01 07:22:01;;;;;;;2.35;2.10;;;6.90;99.90;;;;;;4973983;28;95173;-32
2024/01/01 07:24:27;;;;;;;5.22;3.05;;;6.90;99.90;;;;;;4960091;28;93272;-31
2024/01/01 07:26:55;;;;;;;3.85;1.90;;;6.90;99.90;;;;;;4969887;28;92579;-28
2024/01/01 07:29:21;;;;;;;8.07;2.72;;;6.80;99.90;;;;;;4975384;28;94869;-30
2024/01/01 07:31:46;;;;;;;4.40;2.75;;;6.90;99.90;;;;;;4976657;28;93402;-33
2024/01/01 07:34:15;;;;;;;6.22;3.00;;;6.80;99.90;;;;;;4973282;28;94998;-31
2024/01/01 07:36:42;;;;;;;8.43;2.78;;;6.80;99.90;;;;;;4956421;28;92065;-31
2024/01/01 07:39:08;;;;;;;8.50;2.83;;;6.80;99.90;;;;;;4951928;28;95805;-30
2024/01/01 07:41:33;;;;;;;1.92;1.80;;;6.80;99.90;;;;;;4966822;28;95712;-31
2024/01/01 07:43:59;;;;;;;5.50;2.92;;;6.80;99.90;;;;;;4971428;28;93071;-30
2024/01/01 07:46:24;;;;;;;5.63;2.42;;;6.90;99.90;;;;;;4986870;22;93882;-32
2024/01/01 07:48:50;;;;;;;4.18;2.17;;;6.90;99.90;;;;;;4936487;28;93594;-32
2024/01/01 07:51:16;;;;;;;5.57;2.45;;;6.90;99.90;;;;;;4936100;28;94794;-30
2024/01/01 07:53:42;;;;;;;7.22;3.60;;;6.90;99.90;;;;;;4936790;28;94436;-31
2024/01/01 07:56:08;;;;;;;4.30;2.60;;;6.90;99.90;;;;;;4936155;28;93735;-30
2024/01/01 07:58:33;;;;;;;9.88;2.97;;;6.90;99.90;;;;;;4930475;28;94729;-32
2024/01/01 08:00:59;;;;;;;7.68;2.90;;;6.90;99.90;;;;;;4930168;28;94453;-29
2024/01/01 08:03:25;;;;;;;3.78;3.05;;;6.90;99.90;;;;;;4935808;28;95284;-32
2024/01/01 08:05:51;;;;;;;18.92;3.13;;;6.90;99.90;;;;;;4937281;28;94259;-31
2024/01/01 08:08:17;;;;;;;8.88;2.65;;;6.90;99.90;;;;;;4935550;28;95093;-30
2024/01/01 08:10:43;;;;;;;6.93;3.35;;;6.90;99.90;;;;;;4936620;28;94427;-30
2024/01/01 08:13:09;;;;;;;4.25;2.65;;;6.90;99.90;;;;;;4935724;28;94867;-29
2024/01/01 08:15:34;;;;;;;6.30;3.53;;;6.90;99.90;;;;;;4935782;28;92696;-31
2024/01/01 08:18:02;;;;;;;3.72;2.75;;;6.90;99.90;;;;;;4936336;28;96414;-29
2024/01/01 08:20:29;;;;;;;6.80;3.22;;;6.90;99.90;;;;;;4935758;28;94519;-33
2024/01/01 08:22:55;;;;;;;7.40;3.38;;;7.00;99.90;;;;;;4936069;28;92292;-31
2024/01/01 08:25:20;;;;;;;4.43;2.20;;;7.00;99.90;;;;;;4936157;28;94158;-32
2024/01/01 08:27:47;;;;;;;11.95;3.28;;;7.00;99.90;;;;;;4934430;28;95521;-31
2024/01/01 08:30:13;;;;;;;14.98;4.75;;;7.00;99.90;;;;;;4932769;28;94854;-30
2024/01/01 08:32:38;;;;;;;5.97;3.17;;;7.00;99.90;;;;;;4926977;28;93764;-32
2024/01/01 08:35:04;;;;;;;6.78;2.50;;;7.00;99.90;;;;;;4929498;28;94510;-31
2024/01/01 08:37:30;;;;;;;6.63;3.30;;;7.00;99.90;;;;;;4957470;28;94649;-33
